sensor_id;sensor_type;location;lat;lon;timestamp;temperature;humidity
44121;DHT22;29783;52.504;13.478;2023-04-29T02:40:49;11.00;90.90
44121;DHT22;29783;52.504;13.478;2023-04-29T02:43:15;11.00;91.00
44121;DHT22;29783;52.504;13.478;2023-04-29T02:45:41;11.00;91.00
44121;DHT22;29783;52.504;13.478;2023-04-29T02:48:07;11.00;91.10
44121;DHT22;29783;52.504;13.478;2023-04-29T02:50:32;10.90;91.20
44121;DHT22;29783;52.504;13.478;2023-04-29T02:52:58;10.90;91.30
44121;DHT22;29783;52.504;13.478;2023-04-29T02:55:24;10.80;91.70
44121;DHT22;29783;52.504;13.478;2023-04-29T02:57:51;10.80;91.80
44121;DHT22;29783;52.504;13.478;2023-04-29T03:00:17;10.80;91.80
44121;DHT22;29783;52.504;13.478;2023-04-29T03:02:42;10.80;91.90
44121;DHT22;29783;52.504;13.478;2023-04-29T03:05:08;10.80;92.00
44121;DHT22;29783;52.504;13.478;2023-04-29T03:07:34;10.80;92.10
44121;DHT22;29783;52.504;13.478;2023-04-29T03:10:00;10.80;92.20
44121;DHT22;29783;52.504;13.478;2023-04-29T03:12:26;10.80;92.20
44121;DHT22;29783;52.504;13.478;2023-04-29T03:14:53;10.80;92.30
44121;DHT22;29783;52.504;13.478;2023-04-29T03:17:18;10.80;92.40
44121;DHT22;29783;52.504;13.478;2023-04-29T03:19:44;10.80;92.40
44121;DHT22;29783;52.504;13.478;2023-04-29T03:22:10;10.80;92.60
44121;DHT22;29783;52.504;13.478;2023-04-29T03:24:37;10.90;92.40
44121;DHT22;29783;52.504;13.478;2023-04-29T03:27:03;10.90;92.30
44121;DHT22;29783;52.504;13.478;2023-04-29T03:29:29;10.90;92.30
44121;DHT22;29783;52.504;13.478;2023-04-29T03:31:55;11.00;92.20
44121;DHT22;29783;52.504;13.478;2023-04-29T03:34:22;10.90;92.20
44121;DHT22;29783;52.504;13.478;2023-04-29T03:36:48;10.90;92.40
44121;DHT22;29783;52.504;13.478;2023-04-29T03:39:14;10.90;92.60
44121;DHT22;29783;52.504;13.478;2023-04-29T03:41:40;11.00;92.60
44121;DHT22;29783;52.504;13.478;2023-04-29T03:44:06;11.00;92.60
44121;DHT22;29783;52.504;13.478;2023-04-29T03:46:32;11.10;92.60
44121;DHT22;29783;52.504;13.478;2023-04-29T03:48:59;11.00;92.60
44121;DHT22;29783;52.504;13.478;2023-04-29T03:51:28;11.10;92.60
44121;DHT22;29783;52.504;13.478;2023-04-29T03:53:54;11.10;92.60
44121;DHT22;29783;52.504;13.478;2023-04-29T03:56:23;11.10;92.60
44121;DHT22;29783;52.504;13.478;2023-04-29T03:58:52;11.10;92.80
44121;DHT22;29783;52.504;13.478;2023-04-29T04:01:18;11.10;92.80
44121;DHT22;29783;52.504;13.478;2023-04-29T04:03:44;11.10;92.90
44121;DHT22;29783;52.504;13.478;2023-04-29T04:06:09;11.10;93.00
44121;DHT22;29783;52.504;13.478;2023-04-29T04:08:35;11.10;93.00
44121;DHT22;29783;52.504;13.478;2023-04-29T04:11:00;11.20;93.10
44121;DHT22;29783;52.504;13.478;2023-04-29T04:13:29;11.20;93.10
44121;DHT22;29783;52.504;13.478;2023-04-29T04:15:54;11.10;93.20
44121;DHT22;29783;52.504;13.478;2023-04-29T04:18:20;11.20;93.30
44121;DHT22;29783;52.504;13.478;2023-04-29T04:20:46;11.20;93.30
44121;DHT22;29783;52.504;13.478;2023-04-29T04:23:12;11.20;93.40
44121;DHT22;29783;52.504;13.478;2023-04-29T04:25:43;11.20;93.40
44121;DHT22;29783;52.504;13.478;2023-04-29T04:28:10;11.20;93.40
44121;DHT22;29783;52.504;13.478;2023-04-29T04:30:37;11.30;93.40
44121;DHT22;29783;52.504;13.478;2023-04-29T04:33:03;11.20;93.50
44121;DHT22;29783;52.504;13.478;2023-04-29T04:35:29;11.30;93.50
44121;DHT22;29783;52.504;13.478;2023-04-29T04:37:57;11.30;93.40
44121;DHT22;29783;52.504;13.478;2023-04-29T04:40:23;11.40;93.40
44121;DHT22;29783;52.504;13.478;2023-04-29T04:42:50;11.40;93.30
44121;DHT22;29783;52.504;13.478;2023-04-29T04:45:16;11.50;93.20
44121;DHT22;29783;52.504;13.478;2023-04-29T04:47:42;11.50;93.00
44121;DHT22;29783;52.504;13.478;2023-04-29T04:50:08;11.60;92.90
44121;DHT22;29783;52.504;13.478;2023-04-29T04:52:34;11.70;92.70
44121;DHT22;29783;52.504;13.478;2023-04-29T04:54:59;11.80;92.30
44121;DHT22;29783;52.504;13.478;2023-04-29T04:57:25;11.70;92.50
44121;DHT22;29783;52.504;13.478;2023-04-29T04:59:51;11.80;92.40
44121;DHT22;29783;52.504;13.478;2023-04-29T05:02:17;11.80;92.50
44121;DHT22;29783;52.504;13.478;2023-04-29T05:04:43;11.90;92.40
44121;DHT22;29783;52.504;13.478;2023-04-29T05:07:09;11.90;92.60
44121;DHT22;29783;52.504;13.478;2023-04-29T05:09:35;11.90;92.50
44121;DHT22;29783;52.504;13.478;2023-04-29T05:12:01;12.00;92.70
44121;DHT22;29783;52.504;13.478;2023-04-29T05:14:26;12.10;92.60
44121;DHT22;29783;52.504;13.478;2023-04-29T05:16:52;12.00;92.60
44121;DHT22;29783;52.504;13.478;2023-04-29T05:19:18;11.90;93.00
44121;DHT22;29783;52.504;13.478;2023-04-29T05:21:45;11.80;93.40
44121;DHT22;29783;52.504;13.478;2023-04-29T05:24:11;11.80;93.70
44121;DHT22;29783;52.504;13.478;2023-04-29T05:26:38;11.90;93.90
44121;DHT22;29783;52.504;13.478;2023-04-29T05:29:03;11.90;94.00
44121;DHT22;29783;52.504;13.478;2023-04-29T05:31:29;12.00;94.00
44121;DHT22;29783;52.504;13.478;2023-04-29T05:33:55;12.00;94.00
44121;DHT22;29783;52.504;13.478;2023-04-29T05:36:24;12.00;94.00
44121;DHT22;29783;52.504;13.478;2023-04-29T05:38:52;12.10;94.10
44121;DHT22;29783;52.504;13.478;2023-04-29T05:41:18;12.10;94.10
44121;DHT22;29783;52.504;13.478;2023-04-29T05:43:43;12.20;93.90
44121;DHT22;29783;52.504;13.478;2023-04-29T05:46:09;12.20;93.60
44121;DHT22;29783;52.504;13.478;2023-04-29T05:48:35;12.20;93.60
44121;DHT22;29783;52.504;13.478;2023-04-29T05:51:00;12.20;93.60
44121;DHT22;29783;52.504;13.478;2023-04-29T05:53:26;12.10;93.70
44121;DHT22;29783;52.504;13.478;2023-04-29T05:55:52;12.20;93.90
44121;DHT22;29783;52.504;13.478;2023-04-29T05:58:18;12.20;93.80
44121;DHT22;29783;52.504;13.478;2023-04-29T06:00:43;12.10;94.00
44121;DHT22;29783;52.504;13.478;2023-04-29T06:03:09;12.20;94.20
44121;DHT22;29783;52.504;13.478;2023-04-29T06:05:36;12.20;94.10
44121;DHT22;29783;52.504;13.478;2023-04-29T06:08:03;12.20;94.20
44121;DHT22;29783;52.504;13.478;2023-04-29T06:10:28;12.20;94.00
44121;DHT22;29783;52.504;13.478;2023-04-29T06:12:54;12.20;94.20
44121;DHT22;29783;52.504;13.478;2023-04-29T06:15:20;12.20;94.20
44121;DHT22;29783;52.504;13.478;2023-04-29T06:17:47;12.20;94.40
44121;DHT22;29783;52.504;13.478;2023-04-29T06:20:13;12.20;94.50
44121;DHT22;29783;52.504;13.478;2023-04-29T06:22:42;12.30;94.50
44121;DHT22;29783;52.504;13.478;2023-04-29T06:25:08;12.20;94.70
44121;DHT22;29783;52.504;13.478;2023-04-29T06:27:33;12.30;94.60
44121;DHT22;29783;52.504;13.478;2023-04-29T06:29:59;12.30;94.60
44121;DHT22;29783;52.504;13.478;2023-04-29T06:32:25;12.30;94.60
44121;DHT22;29783;52.504;13.478;2023-04-29T06:34:50;12.30;94.40
44121;DHT22;29783;52.504;13.478;2023-04-29T06:37:16;12.40;94.30
44121;DHT22;29783;52.504;13.478;2023-04-29T06:39:43;12.40;94.30
44121;DHT22;29783;52.504;13.478;2023-04-29T06:42:09;12.30;94.60
44121;DHT22;29783;52.504;13.478;2023-04-29T07:36:17;12.20;93.30
44121;DHT22;29783;52.504;13.478;2023-04-29T07:38:44;12.10;93.10
44121;DHT22;29783;52.504;13.478;2023-04-29T07:41:10;12.10;93.50
44121;DHT22;29783;52.504;13.478;2023-04-29T07:43:36;12.10;93.30
44121;DHT22;29783;52.504;13.478;2023-04-29T10:00:11;10.90;91.90
44121;DHT22;29783;52.504;13.478;2023-04-29T10:02:45;10.80;91.90
44121;DHT22;29783;52.504;13.478;2023-04-29T10:05:17;10.80;92.10
44121;DHT22;29783;52.504;13.478;2023-04-29T10:07:45;10.80;92.60
44121;DHT22;29783;52.504;13.478;2023-04-29T10:10:12;10.70;92.80
44121;DHT22;29783;52.504;13.478;2023-04-29T10:12:41;10.90;92.90
44121;DHT22;29783;52.504;13.478;2023-04-29T10:18:18;10.80;92.90
44121;DHT22;29783;52.504;13.478;2023-04-29T10:20:46;10.90;92.60
44121;DHT22;29783;52.504;13.478;2023-04-29T10:23:15;10.90;92.10
44121;DHT22;29783;52.504;13.478;2023-04-29T10:25:43;10.90;91.50
44121;DHT22;29783;52.504;13.478;2023-04-29T10:28:15;10.90;91.60
44121;DHT22;29783;52.504;13.478;2023-04-29T10:30:44;11.00;91.40
44121;DHT22;29783;52.504;13.478;2023-04-29T10:33:12;11.20;90.90
44121;DHT22;29783;52.504;13.478;2023-04-29T10:35:43;11.20;90.40
44121;DHT22;29783;52.504;13.478;2023-04-29T10:38:22;11.30;90.30
44121;DHT22;29783;52.504;13.478;2023-04-29T10:40:51;11.40;89.70
44121;DHT22;29783;52.504;13.478;2023-04-29T10:43:23;11.40;89.10
44121;DHT22;29783;52.504;13.478;2023-04-29T10:53:35;11.70;87.90
44121;DHT22;29783;52.504;13.478;2023-04-29T10:56:05;11.80;87.30
44121;DHT22;29783;52.504;13.478;2023-04-29T10:58:43;12.20;86.10
44121;DHT22;29783;52.504;13.478;2023-04-29T11:01:13;12.00;86.00
44121;DHT22;29783;52.504;13.478;2023-04-29T11:03:52;11.80;85.90
44121;DHT22;29783;52.504;13.478;2023-04-29T11:09:19;11.70;85.80
44121;DHT22;29783;52.504;13.478;2023-04-29T11:11:46;11.70;86.00
44121;DHT22;29783;52.504;13.478;2023-04-29T11:14:15;11.90;85.70
44121;DHT22;29783;52.504;13.478;2023-04-29T11:16:51;12.00;85.50
44121;DHT22;29783;52.504;13.478;2023-04-29T11:19:18;12.20;84.90
44121;DHT22;29783;52.504;13.478;2023-04-29T11:21:45;12.30;84.20
44121;DHT22;29783;52.504;13.478;2023-04-29T11:24:12;12.30;83.60
44121;DHT22;29783;52.504;13.478;2023-04-29T11:26:40;12.50;83.60
44121;DHT22;29783;52.504;13.478;2023-04-29T11:29:07;12.90;82.10
44121;DHT22;29783;52.504;13.478;2023-04-29T11:31:35;13.20;81.80
44121;DHT22;29783;52.504;13.478;2023-04-29T11:34:03;13.30;80.10
44121;DHT22;29783;52.504;13.478;2023-04-29T11:36:31;13.10;80.90
44121;DHT22;29783;52.504;13.478;2023-04-29T11:38:59;12.90;81.30
44121;DHT22;29783;52.504;13.478;2023-04-29T11:41:25;13.30;81.10
44121;DHT22;29783;52.504;13.478;2023-04-29T11:43:59;13.50;79.60
44121;DHT22;29783;52.504;13.478;2023-04-29T11:46:26;13.90;78.20
44121;DHT22;29783;52.504;13.478;2023-04-29T11:48:56;14.30;76.70
44121;DHT22;29783;52.504;13.478;2023-04-29T11:51:22;14.20;74.60
44121;DHT22;29783;52.504;13.478;2023-04-29T11:53:48;14.20;75.30
44121;DHT22;29783;52.504;13.478;2023-04-29T11:56:15;14.00;75.40
44121;DHT22;29783;52.504;13.478;2023-04-29T11:58:41;14.10;75.30
44121;DHT22;29783;52.504;13.478;2023-04-29T12:01:08;14.00;75.80
44121;DHT22;29783;52.504;13.478;2023-04-29T12:03:33;14.10;75.20
44121;DHT22;29783;52.504;13.478;2023-04-29T12:06:01;14.30;74.60
44121;DHT22;29783;52.504;13.478;2023-04-29T12:08:29;14.50;73.80
44121;DHT22;29783;52.504;13.478;2023-04-29T12:10:57;14.50;73.40
44121;DHT22;29783;52.504;13.478;2023-04-29T12:13:26;14.60;72.40
44121;DHT22;29783;52.504;13.478;2023-04-29T12:15:52;14.20;73.50
44121;DHT22;29783;52.504;13.478;2023-04-29T12:18:19;14.00;73.20
44121;DHT22;29783;52.504;13.478;2023-04-29T12:20:48;13.80;73.40
44121;DHT22;29783;52.504;13.478;2023-04-29T12:23:21;13.70;74.60
44121;DHT22;29783;52.504;13.478;2023-04-29T12:25:59;13.60;75.10
44121;DHT22;29783;52.504;13.478;2023-04-29T12:28:25;13.50;75.30
44121;DHT22;29783;52.504;13.478;2023-04-29T12:30:52;13.40;75.90
44121;DHT22;29783;52.504;13.478;2023-04-29T12:33:27;13.40;76.10
44121;DHT22;29783;52.504;13.478;2023-04-29T12:35:56;13.40;76.00
44121;DHT22;29783;52.504;13.478;2023-04-29T12:38:23;13.70;75.70
44121;DHT22;29783;52.504;13.478;2023-04-29T12:40:52;13.90;75.10
44121;DHT22;29783;52.504;13.478;2023-04-29T12:43:24;14.20;74.30
44121;DHT22;29783;52.504;13.478;2023-04-29T13:02:23;14.20;72.60
44121;DHT22;29783;52.504;13.478;2023-04-29T13:04:48;14.50;71.20
44121;DHT22;29783;52.504;13.478;2023-04-29T13:07:14;15.00;70.40
44121;DHT22;29783;52.504;13.478;2023-04-29T13:09:40;15.20;69.40
44121;DHT22;29783;52.504;13.478;2023-04-29T13:12:06;15.20;68.70
44121;DHT22;29783;52.504;13.478;2023-04-29T13:14:33;15.10;68.90
44121;DHT22;29783;52.504;13.478;2023-04-29T13:16:59;15.20;69.10
44121;DHT22;29783;52.504;13.478;2023-04-29T13:19:24;15.20;68.70
44121;DHT22;29783;52.504;13.478;2023-04-29T13:21:50;14.90;69.30
44121;DHT22;29783;52.504;13.478;2023-04-29T13:24:16;14.70;69.60
44121;DHT22;29783;52.504;13.478;2023-04-29T13:26:45;15.00;69.30
44121;DHT22;29783;52.504;13.478;2023-04-29T13:29:12;15.00;68.60
44121;DHT22;29783;52.504;13.478;2023-04-29T13:31:38;15.20;68.40
44121;DHT22;29783;52.504;13.478;2023-04-29T13:34:04;15.20;67.20
44121;DHT22;29783;52.504;13.478;2023-04-29T13:36:29;15.10;67.50
44121;DHT22;29783;52.504;13.478;2023-04-29T13:38:55;15.10;67.90
44121;DHT22;29783;52.504;13.478;2023-04-29T13:41:21;15.20;67.50
44121;DHT22;29783;52.504;13.478;2023-04-29T13:43:47;15.20;67.60
44121;DHT22;29783;52.504;13.478;2023-04-29T16:04:38;15.20;61.80
44121;DHT22;29783;52.504;13.478;2023-04-29T16:07:04;15.20;62.30
44121;DHT22;29783;52.504;13.478;2023-04-29T16:09:31;15.20;62.50
44121;DHT22;29783;52.504;13.478;2023-04-29T16:11:57;15.20;62.50
44121;DHT22;29783;52.504;13.478;2023-04-29T16:14:23;15.70;61.40
44121;DHT22;29783;52.504;13.478;2023-04-29T16:16:49;17.00;58.20
44121;DHT22;29783;52.504;13.478;2023-04-29T16:19:16;18.20;54.60
44121;DHT22;29783;52.504;13.478;2023-04-29T16:21:42;19.00;52.30
44121;DHT22;29783;52.504;13.478;2023-04-29T16:24:11;19.20;51.30
44121;DHT22;29783;52.504;13.478;2023-04-29T16:26:37;19.20;50.80
44121;DHT22;29783;52.504;13.478;2023-04-29T16:29:05;19.80;49.00
44121;DHT22;29783;52.504;13.478;2023-04-29T16:31:31;18.70;51.20
44121;DHT22;29783;52.504;13.478;2023-04-29T16:33:56;18.20;53.00
44121;DHT22;29783;52.504;13.478;2023-04-29T16:36:23;17.70;54.90
44121;DHT22;29783;52.504;13.478;2023-04-29T16:38:48;17.40;55.50
44121;DHT22;29783;52.504;13.478;2023-04-29T16:41:15;17.00;56.90
44121;DHT22;29783;52.504;13.478;2023-04-29T16:43:41;16.90;57.30
44121;DHT22;29783;52.504;13.478;2023-04-29T16:46:06;16.70;57.70
44121;DHT22;29783;52.504;13.478;2023-04-29T16:48:32;16.40;58.70
44121;DHT22;29783;52.504;13.478;2023-04-29T16:50:58;16.20;59.20
44121;DHT22;29783;52.504;13.478;2023-04-29T16:53:24;16.10;59.60
44121;DHT22;29783;52.504;13.478;2023-04-29T16:55:49;16.70;58.90
44121;DHT22;29783;52.504;13.478;2023-04-29T16:58:15;18.30;53.80
44121;DHT22;29783;52.504;13.478;2023-04-29T17:00:42;19.30;50.90
44121;DHT22;29783;52.504;13.478;2023-04-29T17:03:08;20.50;47.40
44121;DHT22;29783;52.504;13.478;2023-04-29T17:05:34;21.70;44.70
44121;DHT22;29783;52.504;13.478;2023-04-29T17:07:59;21.90;43.20
44121;DHT22;29783;52.504;13.478;2023-04-29T17:10:27;22.40;42.00
44121;DHT22;29783;52.504;13.478;2023-04-29T17:12:52;23.10;38.10
44121;DHT22;29783;52.504;13.478;2023-04-29T17:15:19;22.80;39.70
44121;DHT22;29783;52.504;13.478;2023-04-29T17:17:44;22.30;40.60
44121;DHT22;29783;52.504;13.478;2023-04-29T17:20:14;22.40;38.80
44121;DHT22;29783;52.504;13.478;2023-04-29T17:22:39;20.70;41.60
44121;DHT22;29783;52.504;13.478;2023-04-29T17:25:06;19.50;44.00
44121;DHT22;29783;52.504;13.478;2023-04-29T17:27:35;18.40;44.90
44121;DHT22;29783;52.504;13.478;2023-04-29T17:30:01;17.40;44.90
44121;DHT22;29783;52.504;13.478;2023-04-29T17:32:30;16.90;45.20
44121;DHT22;29783;52.504;13.478;2023-04-29T17:35:03;16.90;45.30
44121;DHT22;29783;52.504;13.478;2023-04-29T17:37:29;16.30;46.30
44121;DHT22;29783;52.504;13.478;2023-04-29T17:39:55;16.00;47.40
44121;DHT22;29783;52.504;13.478;2023-04-29T17:42:21;15.70;47.90
44121;DHT22;29783;52.504;13.478;2023-04-29T17:57:43;14.90;49.80
44121;DHT22;29783;52.504;13.478;2023-04-29T18:00:09;14.90;50.00
44121;DHT22;29783;52.504;13.478;2023-04-29T18:02:35;14.80;49.90
44121;DHT22;29783;52.504;13.478;2023-04-29T18:05:02;14.80;50.20
44121;DHT22;29783;52.504;13.478;2023-04-29T18:07:27;14.70;50.40
44121;DHT22;29783;52.504;13.478;2023-04-29T18:09:53;14.70;50.60
44121;DHT22;29783;52.504;13.478;2023-04-29T18:12:18;14.50;50.70
44121;DHT22;29783;52.504;13.478;2023-04-29T18:14:45;14.40;51.50
44121;DHT22;29783;52.504;13.478;2023-04-29T18:17:13;14.30;51.80
44121;DHT22;29783;52.504;13.478;2023-04-29T18:19:38;14.20;52.10
44121;DHT22;29783;52.504;13.478;2023-04-29T18:22:05;14.20;52.50
44121;DHT22;29783;52.504;13.478;2023-04-29T18:24:33;14.20;52.60
44121;DHT22;29783;52.504;13.478;2023-04-29T18:26:58;14.10;52.80
44121;DHT22;29783;52.504;13.478;2023-04-29T18:29:25;14.10;53.10
44121;DHT22;29783;52.504;13.478;2023-04-29T18:31:51;14.00;53.40
44121;DHT22;29783;52.504;13.478;2023-04-29T18:34:18;13.90;53.70
44121;DHT22;29783;52.504;13.478;2023-04-29T18:36:44;13.70;54.50
44121;DHT22;29783;52.504;13.478;2023-04-29T18:39:10;13.50;55.20
44121;DHT22;29783;52.504;13.478;2023-04-29T18:41:35;13.30;56.10
